Time;durP1;ratioP1;P1;durP2;ratioP2;P2;SDS_P1;SDS_P2;PMS_P1;PMS_P2;Temp;Humidity;BMP_temperature;BMP_pressure;BME280_temperature;BME280_humidity;BME280_pressure;Samples;Min_cycle;Max_cycle;Signal;HPM_P1;HPM_P2
2023/05/21 00:01:49;;;;;;;14.82;10.57;;;;;;;30.33;44.34;95914.34;5042383;28;20426;-61
2023/05/21 00:04:17;;;;;;;14.85;10.00;;;;;;;29.49;45.88;95917.75;5033261;28;20120;-63
2023/05/21 00:06:46;;;;;;;14.35;10.80;;;;;;;29.27;45.08;95909.13;5035858;28;20076;-62
2023/05/21 00:09:14;;;;;;;13.48;10.30;;;;;;;29.58;44.70;95909.81;5036349;28;20081;-61
2023/05/21 00:11:44;;;;;;;12.50;9.45;;;;;;;30.84;41.91;95895.69;5036792;28;20558;-62
2023/05/21 00:14:12;;;;;;;12.00;9.57;;;;;;;29.41;44.79;95907.44;5038367;28;20076;-61
2023/05/21 00:16:40;;;;;;;15.13;9.90;;;;;;;30.30;43.51;95902.09;5035711;28;20892;-61
2023/05/21 00:19:09;;;;;;;15.68;10.70;;;;;;;30.55;42.45;95887.47;5035306;28;20145;-62
2023/05/21 00:21:38;;;;;;;14.90;10.35;;;;;;;29.85;43.63;95893.13;5035110;28;20085;-61
2023/05/21 00:24:06;;;;;;;16.58;10.93;;;;;;;29.71;43.05;95890.22;5033920;28;20136;-62
2023/05/21 00:26:35;;;;;;;15.18;10.63;;;;;;;29.14;44.41;95893.44;5035301;28;20136;-62
2023/05/21 00:29:05;;;;;;;12.00;9.55;;;;;;;29.14;44.70;95899.66;5039644;28;20077;-62
2023/05/21 00:31:33;;;;;;;13.87;9.90;;;;;;;30.30;42.07;95893.13;5042477;28;20485;-61
2023/05/21 00:34:01;;;;;;;15.40;10.05;;;;;;;30.14;42.65;95884.25;5038378;28;20099;-61
2023/05/21 00:36:30;;;;;;;13.27;9.30;;;;;;;29.70;42.69;95891.31;5041029;28;20084;-61
2023/05/21 00:38:58;;;;;;;14.55;9.85;;;;;;;30.53;40.26;95883.44;5042628;28;20096;-61
2023/05/21 00:41:28;;;;;;;14.25;9.23;;;;;;;30.42;40.81;95891.69;5039233;28;20085;-62
2023/05/21 00:43:59;;;;;;;15.32;9.65;;;;;;;30.16;41.34;95887.50;5038877;28;20886;-61
2023/05/21 00:46:43;;;;;;;11.85;8.82;;;;;;;31.19;39.52;95882.78;4991554;28;20145;-62
2023/05/21 00:49:13;;;;;;;13.85;10.02;;;;;;;31.52;38.60;95881.06;4996918;28;20548;-61
2023/05/21 00:51:44;;;;;;;13.07;9.43;;;;;;;31.61;38.46;95884.72;4992772;28;20147;-61
2023/05/21 00:54:12;;;;;;;;;;;;;;;31.34;38.98;95877.16;4994384;28;20133;-61
2023/05/21 00:56:40;;;;;;;13.80;9.98;;;;;;;30.93;39.00;95885.75;5001829;28;20624;-62
2023/05/21 00:59:08;;;;;;;14.90;10.25;;;;;;;31.02;39.30;95877.78;4998827;28;20080;-61
2023/05/21 01:01:36;;;;;;;13.40;9.68;;;;;;;30.86;39.32;95879.03;4992283;28;20077;-62
2023/05/21 01:04:06;;;;;;;14.73;10.38;;;;;;;31.03;39.19;95878.59;4993843;28;20054;-61
2023/05/21 01:06:35;;;;;;;15.77;9.50;;;;;;;30.66;39.74;95878.13;4992962;28;20077;-61
2023/05/21 01:09:05;;;;;;;12.27;9.45;;;;;;;30.31;40.22;95879.25;4993682;28;20179;-59
2023/05/21 01:11:38;;;;;;;15.15;9.98;;;;;;;30.32;40.61;95883.59;4997889;28;20051;-60
2023/05/21 01:14:08;;;;;;;12.70;9.80;;;;;;;30.55;40.12;95876.59;4992496;28;20216;-60
2023/05/21 01:16:37;;;;;;;14.20;10.25;;;;;;;31.14;39.23;95869.19;4993585;28;20088;-61
2023/05/21 01:19:08;;;;;;;13.25;9.80;;;;;;;31.13;38.92;95876.56;4996917;28;20089;-61
2023/05/21 01:21:42;;;;;;;13.15;9.63;;;;;;;30.62;39.64;95884.41;4997118;28;20100;-62
2023/05/21 01:24:12;;;;;;;14.27;10.30;;;;;;;31.21;38.52;95880.56;5016096;28;20088;-61
2023/05/21 01:26:42;;;;;;;14.18;10.27;;;;;;;30.49;39.61;95875.03;5035310;28;20601;-61
2023/05/21 01:29:12;;;;;;;13.32;10.20;;;;;;;30.98;38.83;95874.84;5036283;28;20576;-61
2023/05/21 01:31:48;;;;;;;14.45;10.15;;;;;;;30.45;39.61;95874.75;5034318;28;20606;-62
2023/05/21 01:34:22;;;;;;;16.13;10.48;;;;;;;30.30;40.05;95874.91;5039819;28;20568;-61
2023/05/21 01:36:55;;;;;;;14.13;9.88;;;;;;;30.56;38.99;95864.63;5042112;28;20549;-61
2023/05/21 01:39:28;;;;;;;15.35;10.13;;;;;;;30.07;39.79;95872.88;5041946;28;20076;-61
2023/05/21 01:41:57;;;;;;;15.70;9.25;;;;;;;30.07;40.03;95865.53;5041690;28;20080;-61
2023/05/21 01:44:27;;;;;;;15.40;10.05;;;;;;;29.33;41.53;95865.38;5044363;28;20091;-62
2023/05/21 01:46:55;;;;;;;;;;;;;;;29.23;41.83;95864.63;5046422;28;20089;-61
2023/05/21 01:49:24;;;;;;;14.40;9.98;;;;;;;29.39;41.52;95860.75;5040308;28;19964;-61
2023/05/21 01:51:53;;;;;;;14.52;9.55;;;;;;;29.68;40.66;95860.88;5040293;28;20091;-59
2023/05/21 01:54:22;;;;;;;13.38;9.90;;;;;;;29.24;41.51;95871.66;5056450;28;20088;-61
2023/05/21 01:56:52;;;;;;;12.17;9.53;;;;;;;29.76;40.41;95860.28;5050895;28;20543;-62
2023/05/21 01:59:20;;;;;;;13.10;10.17;;;;;;;29.83;40.50;95861.88;5045980;28;20088;-61
2023/05/21 02:01:48;;;;;;;13.93;9.73;;;;;;;29.39;40.68;95863.47;5056696;28;20486;-61
2023/05/21 02:04:17;;;;;;;14.95;10.00;;;;;;;29.70;40.20;95866.88;5047841;28;20136;-61
2023/05/21 02:06:45;;;;;;;11.77;9.38;;;;;;;29.66;40.27;95862.25;5058216;28;20124;-62
2023/05/21 02:09:13;;;;;;;12.52;9.20;;;;;;;29.73;39.39;95862.75;5050577;28;20088;-62
2023/05/21 02:11:42;;;;;;;15.30;9.40;;;;;;;29.58;40.43;95863.63;5052422;28;20098;-62
2023/05/21 02:14:12;;;;;;;14.23;9.90;;;;;;;29.23;40.67;95857.28;5047505;28;20088;-60
2023/05/21 02:16:41;;;;;;;;;;;;;;;29.85;39.62;95857.00;5045436;28;20084;-61
2023/05/21 02:19:10;;;;;;;11.73;8.93;;;;;;;29.89;38.45;95858.03;5039787;28;19976;-63
2023/05/21 02:21:38;;;;;;;15.65;9.52;;;;;;;30.20;38.37;95851.31;5038878;28;20085;-62
2023/05/21 02:24:07;;;;;;;12.80;9.38;;;;;;;29.98;38.31;95867.25;5038585;28;20081;-61
2023/05/21 02:26:36;;;;;;;13.43;9.55;;;;;;;30.04;38.55;95864.19;5039071;28;20093;-61
2023/05/21 02:29:04;;;;;;;11.48;8.75;;;;;;;29.68;38.35;95860.88;5040019;28;20084;-60
2023/05/21 02:31:34;;;;;;;13.18;8.52;;;;;;;29.94;37.87;95858.84;5045045;28;20867;-61
2023/05/21 02:34:03;;;;;;;11.55;8.15;;;;;;;29.71;38.07;95871.19;5037774;28;20076;-60
2023/05/21 02:36:32;;;;;;;12.88;8.57;;;;;;;29.96;37.43;95870.22;5039517;28;20089;-61
2023/05/21 02:39:00;;;;;;;11.68;8.90;;;;;;;30.02;37.40;95865.56;5038082;28;20091;-61
2023/05/21 02:41:28;;;;;;;12.25;8.05;;;;;;;29.72;37.98;95861.94;5038595;28;20080;-60
2023/05/21 02:43:57;;;;;;;13.73;8.68;;;;;;;29.87;37.97;95855.63;5039530;28;20073;-61
2023/05/21 02:46:25;;;;;;;11.85;8.45;;;;;;;29.77;37.78;95861.94;5041735;28;20092;-59
2023/05/21 02:48:55;;;;;;;12.68;8.68;;;;;;;29.91;37.78;95862.13;5043320;28;20083;-62
2023/05/21 02:51:23;;;;;;;11.93;8.30;;;;;;;29.49;38.25;95860.72;5038072;28;20089;-59
2023/05/21 02:53:51;;;;;;;11.90;8.73;;;;;;;29.18;39.13;95860.03;5041423;28;20080;-61
2023/05/21 02:56:20;;;;;;;15.80;9.43;;;;;;;29.36;38.85;95860.50;5036710;28;20076;-60
2023/05/21 02:58:48;;;;;;;16.13;8.70;;;;;;;29.23;38.95;95862.72;5041123;28;20221;-60
2023/05/21 03:01:16;;;;;;;15.07;8.77;;;;;;;28.93;39.75;95854.63;5040153;28;20092;-61
2023/05/21 03:03:45;;;;;;;11.20;8.27;;;;;;;28.95;39.44;95853.28;5039774;28;20500;-61
2023/05/21 03:06:15;;;;;;;14.63;8.55;;;;;;;29.19;39.12;95852.69;5037372;28;20064;-60
2023/05/21 03:08:43;;;;;;;13.73;8.98;;;;;;;29.34;38.71;95856.13;5037834;28;20073;-60
2023/05/21 03:11:11;;;;;;;12.10;8.02;;;;;;;29.29;38.86;95856.19;5038484;28;20113;-61
2023/05/21 03:13:41;;;;;;;13.02;8.40;;;;;;;28.87;39.46;95856.53;5040181;28;20092;-58
2023/05/21 03:16:10;;;;;;;13.90;8.25;;;;;;;29.19;39.12;95852.69;5038193;28;20095;-61
2023/05/21 03:18:38;;;;;;;12.52;8.32;;;;;;;29.45;38.25;95846.03;5039324;28;20763;-61
2023/05/21 03:21:06;;;;;;;11.43;8.07;;;;;;;29.38;38.58;95850.16;5038934;28;20499;-58
2023/05/21 03:23:36;;;;;;;14.40;8.68;;;;;;;29.14;38.34;95853.50;5040703;28;20057;-61
2023/05/21 03:26:04;;;;;;;12.40;8.73;;;;;;;29.43;37.87;95842.00;5036306;28;20559;-59
2023/05/21 03:28:33;;;;;;;12.90;8.48;;;;;;;29.39;38.04;95844.47;5033106;28;20686;-60
2023/05/21 03:31:01;;;;;;;12.82;8.45;;;;;;;29.15;38.42;95848.88;5040083;28;20088;-60
2023/05/21 03:33:29;;;;;;;14.55;8.02;;;;;;;28.89;38.66;95842.72;5039918;28;20077;-59
2023/05/21 03:35:58;;;;;;;13.02;8.10;;;;;;;28.90;39.00;95847.03;5034340;28;20134;-60
2023/05/21 03:38:26;;;;;;;13.07;8.55;;;;;;;29.08;38.82;95841.88;5038367;28;20077;-61
2023/05/21 03:40:56;;;;;;;12.38;8.02;;;;;;;28.85;39.39;95847.88;5038154;28;20471;-60
2023/05/21 03:43:24;;;;;;;12.00;8.77;;;;;;;29.08;38.84;95847.31;5035511;28;20092;-61
2023/05/21 03:45:54;;;;;;;9.65;7.03;;;;;;;29.33;38.26;95845.56;5035017;28;20449;-61
2023/05/21 03:48:22;;;;;;;12.40;8.82;;;;;;;29.32;38.15;95841.22;5039852;28;20092;-61
2023/05/21 03:50:51;;;;;;;11.82;8.20;;;;;;;29.61;37.56;95848.72;5041192;28;20076;-61
2023/05/21 03:53:19;;;;;;;12.70;8.60;;;;;;;29.59;38.17;95846.25;5039430;28;20092;-61
2023/05/21 03:55:53;;;;;;;11.38;7.95;;;;;;;29.30;37.94;95844.22;5037201;28;20081;-62
2023/05/21 03:58:24;;;;;;;12.73;8.30;;;;;;;29.74;37.44;95845.38;5037811;28;20076;-61
2023/05/21 04:00:52;;;;;;;13.07;8.15;;;;;;;29.68;37.36;95844.59;5036114;28;20216;-61
2023/05/21 04:03:20;;;;;;;9.68;7.70;;;;;;;29.55;37.29;95843.25;5041728;28;20462;-61
2023/05/21 04:05:49;;;;;;;10.85;7.43;;;;;;;29.63;37.32;95841.06;5037096;28;20072;-61
2023/05/21 04:08:18;;;;;;;10.40;7.30;;;;;;;29.06;38.37;95846.75;5033710;28;20553;-61
2023/05/21 04:10:46;;;;;;;11.93;7.45;;;;;;;29.02;37.94;95845.69;5033742;28;20144;-62
2023/05/21 04:13:14;;;;;;;10.73;7.00;;;;;;;28.58;38.43;95845.50;5043681;28;20175;-61
2023/05/21 04:15:45;;;;;;;10.65;7.00;;;;;;;28.79;38.14;95849.78;5040607;28;20076;-61
2023/05/21 04:18:15;;;;;;;9.13;6.40;;;;;;;28.64;39.02;95852.53;5035449;28;20072;-61
2023/05/21 04:20:44;;;;;;;10.88;6.63;;;;;;;28.19;40.02;95853.38;5045334;28;20219;-61
2023/05/21 04:23:12;;;;;;;9.60;7.25;;;;;;;29.21;38.42;95851.31;5039118;28;20095;-62
2023/05/21 04:25:41;;;;;;;9.55;6.38;;;;;;;29.44;37.97;95855.28;5036005;28;20080;-62
2023/05/21 04:28:09;;;;;;;10.18;6.88;;;;;;;28.75;38.95;95856.06;5034681;28;20076;-61
2023/05/21 04:30:38;;;;;;;10.40;6.75;;;;;;;29.13;38.62;95857.31;5041049;28;20087;-61
2023/05/21 04:33:08;;;;;;;9.48;6.00;;;;;;;28.82;38.56;95857.38;5045757;28;20084;-58
2023/05/21 04:35:43;;;;;;;9.60;6.68;;;;;;;29.42;38.05;95862.09;5037089;28;20103;-61
2023/05/21 04:38:11;;;;;;;9.90;6.40;;;;;;;29.82;37.20;95863.78;5038811;28;20476;-59
2023/05/21 04:40:40;;;;;;;9.65;6.82;;;;;;;30.35;36.86;95864.00;5038966;28;20087;-62
2023/05/21 04:43:10;;;;;;;9.05;6.57;;;;;;;30.74;35.64;95863.88;5041906;28;20076;-60
2023/05/21 04:45:38;;;;;;;8.93;6.40;;;;;;;31.03;35.83;95859.53;5036439;28;20107;-60
2023/05/21 04:48:08;;;;;;;10.48;6.43;;;;;;;30.49;36.32;95864.94;5042152;28;20111;-60
2023/05/21 04:50:37;;;;;;;9.67;6.47;;;;;;;30.37;36.99;95867.22;5034042;28;20093;-61
2023/05/21 04:53:06;;;;;;;10.23;6.60;;;;;;;30.48;36.42;95870.66;5040745;28;20088;-61
2023/05/21 04:55:38;;;;;;;9.00;6.95;;;;;;;31.11;35.83;95865.16;5037519;28;20079;-61
2023/05/21 04:58:06;;;;;;;9.30;6.80;;;;;;;30.69;36.12;95865.84;5038889;28;20093;-60
2023/05/21 05:00:36;;;;;;;8.63;6.32;;;;;;;30.73;35.86;95875.88;5036942;28;20089;-61
2023/05/21 05:03:04;;;;;;;10.23;6.72;;;;;;;31.48;35.24;95880.00;5039552;28;20099;-61
2023/05/21 05:05:34;;;;;;;9.52;6.45;;;;;;;31.80;34.69;95876.59;5041651;28;20107;-61
2023/05/21 05:08:03;;;;;;;8.65;6.55;;;;;;;31.79;34.55;95866.75;5037927;28;20539;-60
2023/05/21 05:10:32;;;;;;;8.43;5.85;;;;;;;31.14;35.30;95871.94;5044395;28;20083;-60
2023/05/21 05:13:00;;;;;;;9.90;6.47;;;;;;;31.31;35.56;95869.53;5047369;28;20084;-61
2023/05/21 05:15:28;;;;;;;9.85;5.82;;;;;;;31.67;34.77;95869.94;5044271;28;20559;-62
2023/05/21 05:17:57;;;;;;;8.07;6.15;;;;;;;32.18;34.04;95871.13;5043059;28;20083;-61
2023/05/21 05:20:25;;;;;;;9.70;6.18;;;;;;;32.52;33.79;95867.31;5044255;28;20088;-61
2023/05/21 05:22:55;;;;;;;11.45;5.90;;;;;;;31.82;34.40;95868.09;5042486;28;20108;-62
2023/05/21 05:25:23;;;;;;;7.97;6.18;;;;;;;29.52;37.17;95884.56;5042386;28;20083;-62
2023/05/21 05:27:51;;;;;;;8.50;6.40;;;;;;;30.80;36.43;95874.75;5045658;28;20072;-60
2023/05/21 05:30:20;;;;;;;11.05;6.13;;;;;;;31.45;36.39;95872.41;5039563;28;20087;-61
2023/05/21 05:32:48;;;;;;;11.15;7.10;;;;;;;31.89;35.51;95863.09;5047791;28;20061;-61
2023/05/21 05:35:17;;;;;;;8.98;6.60;;;;;;;31.48;36.08;95866.38;5037188;28;20132;-59
2023/05/21 05:37:45;;;;;;;9.43;6.47;;;;;;;30.48;37.18;95874.19;5035950;28;20085;-60
2023/05/21 05:40:15;;;;;;;9.23;6.97;;;;;;;31.21;36.11;95878.66;5042569;28;20092;-59
2023/05/21 05:42:43;;;;;;;8.88;6.35;;;;;;;31.95;35.46;95875.56;5040127;28;20088;-60
2023/05/21 05:45:11;;;;;;;9.77;6.43;;;;;;;32.49;34.43;95870.69;5045080;28;20142;-60
2023/05/21 05:47:40;;;;;;;8.90;6.25;;;;;;;31.68;35.76;95868.81;5043922;28;20076;-61
2023/05/21 05:50:09;;;;;;;10.50;6.13;;;;;;;31.41;35.89;95869.44;5040690;28;20485;-62
2023/05/21 05:52:37;;;;;;;9.60;6.78;;;;;;;31.79;35.67;95865.94;5036209;28;20559;-61
2023/05/21 05:55:07;;;;;;;8.35;6.35;;;;;;;32.64;34.41;95867.66;5044004;28;20080;-61
2023/05/21 05:57:37;;;;;;;;;;;;;;;31.14;36.60;95877.38;5040633;28;20089;-61
2023/05/21 06:00:08;;;;;;;10.27;6.63;;;;;;;31.39;36.35;95877.13;5037244;28;20388;-61
2023/05/21 06:02:36;;;;;;;11.13;7.72;;;;;;;31.62;36.30;95878.16;5038635;28;20097;-61
2023/05/21 06:05:06;;;;;;;12.55;7.20;;;;;;;31.24;36.30;95873.72;5040201;28;20080;-61
2023/05/21 06:07:34;;;;;;;9.90;7.20;;;;;;;31.21;36.86;95875.09;5034727;28;20091;-61
2023/05/21 06:10:03;;;;;;;9.85;6.75;;;;;;;31.69;36.01;95872.34;5042282;28;20073;-61
2023/05/21 06:12:31;;;;;;;10.05;6.55;;;;;;;32.18;35.69;95876.59;5041254;28;20092;-61
2023/05/21 06:15:01;;;;;;;9.77;6.75;;;;;;;30.18;37.71;95883.44;5041394;28;20211;-61
2023/05/21 06:17:29;;;;;;;8.52;6.30;;;;;;;31.47;37.51;95872.13;5032953;28;20096;-61
2023/05/21 06:19:57;;;;;;;9.80;7.25;;;;;;;31.40;36.11;95875.19;5037313;28;20181;-61
2023/05/21 06:22:26;;;;;;;10.05;7.30;;;;;;;31.21;36.47;95873.22;5044434;28;20536;-60
2023/05/21 06:24:54;;;;;;;8.60;6.63;;;;;;;31.34;36.46;95876.34;5052513;28;20076;-59
2023/05/21 06:27:22;;;;;;;9.93;7.20;;;;;;;29.98;38.57;95881.63;5041337;28;20103;-59
2023/05/21 06:29:51;;;;;;;9.90;6.50;;;;;;;31.44;36.95;95873.50;5042091;28;20099;-59
2023/05/21 06:32:21;;;;;;;9.52;7.18;;;;;;;32.08;35.89;95868.56;5043899;28;20081;-60
2023/05/21 06:34:50;;;;;;;9.55;7.68;;;;;;;31.74;35.99;95868.75;5039009;28;20828;-61
2023/05/21 06:37:20;;;;;;;11.50;6.75;;;;;;;33.03;34.88;95867.22;5039679;28;20110;-61
2023/05/21 06:39:48;;;;;;;8.95;6.93;;;;;;;30.26;37.88;95880.09;5041921;28;20073;-61
2023/05/21 06:42:17;;;;;;;8.95;6.82;;;;;;;30.72;37.34;95876.97;5037727;28;20548;-60
2023/05/21 06:44:45;;;;;;;9.02;6.80;;;;;;;31.42;36.69;95875.72;5034794;28;20491;-61
2023/05/21 06:47:13;;;;;;;9.63;7.07;;;;;;;31.13;36.88;95873.03;5040508;28;20190;-62
2023/05/21 06:49:43;;;;;;;10.35;6.57;;;;;;;32.21;35.51;95876.00;5042781;28;20081;-60
2023/05/21 06:52:11;;;;;;;11.05;7.40;;;;;;;31.46;36.64;95878.69;5039926;28;20081;-61
2023/05/21 06:54:39;;;;;;;7.65;6.03;;;;;;;32.09;35.61;95878.38;5041027;28;20085;-61
2023/05/21 06:57:08;;;;;;;9.93;6.50;;;;;;;31.85;36.15;95873.78;5035955;28;20083;-58
2023/05/21 06:59:36;;;;;;;9.40;6.88;;;;;;;33.50;33.66;95875.38;5039393;28;20100;-62
2023/05/21 07:02:05;;;;;;;10.20;6.78;;;;;;;34.25;32.68;95876.72;5035593;28;20084;-59
2023/05/21 07:04:34;;;;;;;9.30;6.60;;;;;;;33.20;34.38;95884.97;5034850;28;20088;-63
2023/05/21 07:07:04;;;;;;;10.23;7.13;;;;;;;34.76;32.96;95880.13;5045269;28;20087;-60
2023/05/21 07:09:32;;;;;;;8.30;6.60;;;;;;;32.71;34.51;95884.47;5044526;28;20084;-61
2023/05/21 07:12:01;;;;;;;9.20;6.97;;;;;;;33.03;34.46;95882.81;5034882;28;20132;-61
2023/05/21 07:14:29;;;;;;;8.98;6.15;;;;;;;33.09;33.99;95876.97;5041082;28;20095;-61
2023/05/21 07:16:57;;;;;;;8.82;6.65;;;;;;;32.74;34.52;95883.06;5036404;28;20080;-57
2023/05/21 07:19:26;;;;;;;10.60;6.97;;;;;;;33.18;34.18;95893.47;5038644;28;20081;-62
2023/05/21 07:21:55;;;;;;;9.38;6.60;;;;;;;32.44;35.23;95890.66;5039506;28;20080;-61
2023/05/21 07:24:26;;;;;;;7.85;6.25;;;;;;;33.99;33.33;95890.94;5041891;28;20091;-59
2023/05/21 07:26:54;;;;;;;9.88;6.93;;;;;;;33.58;33.94;95888.31;5045091;28;20088;-63
2023/05/21 07:29:23;;;;;;;9.80;6.53;;;;;;;32.56;34.52;95890.19;5041385;28;20084;-61
2023/05/21 07:31:51;;;;;;;9.23;7.85;;;;;;;32.27;34.98;95890.38;5039179;28;20076;-60
2023/05/21 07:34:19;;;;;;;9.93;7.47;;;;;;;33.75;34.77;95883.00;5039397;28;20848;-62
2023/05/21 07:36:48;;;;;;;9.55;6.78;;;;;;;34.22;33.29;95885.56;5040540;28;20515;-61
2023/05/21 07:39:16;;;;;;;10.77;6.82;;;;;;;35.28;32.41;95880.41;5039639;28;20081;-61
2023/05/21 07:41:46;;;;;;;8.85;7.53;;;;;;;35.42;31.85;95881.91;5039840;28;20087;-62
2023/05/21 07:44:14;;;;;;;8.82;7.38;;;;;;;32.85;34.46;95887.22;5033368;28;20092;-60
2023/05/21 07:46:43;;;;;;;9.30;7.32;;;;;;;32.02;35.61;95886.13;5041009;28;20084;-62
2023/05/21 07:49:15;;;;;;;9.25;7.47;;;;;;;33.68;33.89;95879.88;5037125;28;20128;-61
2023/05/21 07:51:44;;;;;;;10.40;7.85;;;;;;;33.45;34.47;95881.72;5035449;28;20076;-61
2023/05/21 07:54:12;;;;;;;12.45;7.45;;;;;;;33.38;34.96;95875.03;5039511;28;20649;-61
2023/05/21 07:56:40;;;;;;;10.50;7.97;;;;;;;34.08;34.09;95885.59;5038288;28;20080;-61
2023/05/21 07:59:10;;;;;;;8.27;7.10;;;;;;;33.07;35.49;95884.66;5035568;28;20081;-61
2023/05/21 08:01:42;;;;;;;12.07;8.07;;;;;;;34.61;33.29;95884.06;5036828;28;20084;-62
2023/05/21 08:04:10;;;;;;;12.15;7.93;;;;;;;33.53;34.92;95883.75;5036497;28;20091;-61
2023/05/21 08:06:39;;;;;;;13.20;8.15;;;;;;;35.04;32.55;95880.81;5037613;28;20096;-61
2023/05/21 08:09:07;;;;;;;11.13;8.55;;;;;;;36.16;32.40;95874.00;5038046;28;20080;-61
2023/05/21 08:11:35;;;;;;;11.43;7.90;;;;;;;35.48;32.94;95879.00;5039883;28;20095;-60
2023/05/21 08:14:04;;;;;;;12.23;9.88;;;;;;;35.33;33.14;95881.06;5041854;28;20099;-62
2023/05/21 08:16:33;;;;;;;10.40;8.82;;;;;;;35.98;32.55;95884.13;5039764;28;20084;-61
2023/05/21 08:19:02;;;;;;;12.18;8.77;;;;;;;35.21;33.14;95882.81;5036421;28;20076;-60
2023/05/21 08:21:31;;;;;;;11.65;9.05;;;;;;;36.07;32.34;95888.53;5033279;28;20084;-61
2023/05/21 08:24:00;;;;;;;14.02;8.75;;;;;;;36.09;32.77;95885.47;5038235;28;20096;-61
2023/05/21 08:26:28;;;;;;;12.73;9.60;;;;;;;35.41;33.01;95883.03;5036670;28;20788;-60
2023/05/21 08:28:56;;;;;;;11.73;8.77;;;;;;;35.57;32.78;95886.16;5037625;28;20107;-60
2023/05/21 08:31:25;;;;;;;11.48;9.65;;;;;;;36.78;31.94;95882.66;5036960;28;20481;-62
2023/05/21 08:33:55;;;;;;;13.68;9.50;;;;;;;36.29;32.19;95882.06;5039793;28;20195;-60
2023/05/21 08:36:24;;;;;;;;;;;;;;;37.15;31.45;95872.06;5038199;28;20091;-62
2023/05/21 08:38:52;;;;;;;12.50;9.18;;;;;;;36.80;32.09;95882.34;5038271;28;20408;-61
2023/05/21 08:41:22;;;;;;;11.23;8.45;;;;;;;37.02;31.55;95886.84;5040859;28;20103;-61
2023/05/21 08:43:55;;;;;;;12.70;9.55;;;;;;;37.40;30.68;95886.03;5035266;28;20088;-62
2023/05/21 08:46:24;;;;;;;11.02;9.00;;;;;;;36.92;31.31;95887.97;5042318;28;20089;-61
2023/05/21 08:48:54;;;;;;;12.18;9.25;;;;;;;38.10;30.21;95886.47;5035904;28;20076;-61
2023/05/21 08:51:24;;;;;;;11.75;9.57;;;;;;;38.79;30.33;95882.31;5042105;28;20087;-61
2023/05/21 08:53:52;;;;;;;12.15;9.15;;;;;;;37.33;31.44;95885.75;5039189;28;20080;-62
2023/05/21 08:56:21;;;;;;;11.85;9.60;;;;;;;38.49;30.08;95890.69;5046519;28;20084;-62
2023/05/21 08:58:49;;;;;;;10.68;9.00;;;;;;;38.86;29.47;95886.13;5041580;28;20064;-62
2023/05/21 09:01:18;;;;;;;13.07;9.10;;;;;;;37.47;30.84;95881.66;5040019;28;20085;-60
2023/05/21 09:03:47;;;;;;;9.27;8.07;;;;;;;37.03;30.45;95878.28;5042147;28;20087;-62
2023/05/21 09:06:16;;;;;;;14.75;8.40;;;;;;;36.90;30.29;95879.25;5042104;28;20094;-62
2023/05/21 09:08:50;;;;;;;9.85;8.00;;;;;;;36.50;30.32;95886.94;5042522;28;20103;-62
2023/05/21 09:11:20;;;;;;;9.55;7.50;;;;;;;37.02;28.54;95879.38;5035782;28;20165;-61
2023/05/21 09:13:49;;;;;;;9.27;8.07;;;;;;;38.87;27.26;95879.47;5046203;28;20446;-62
2023/05/21 09:16:17;;;;;;;9.88;7.78;;;;;;;39.25;26.87;95878.38;5041875;28;20107;-61
2023/05/21 09:18:46;;;;;;;9.55;7.70;;;;;;;39.66;26.31;95870.25;5035950;28;20568;-62
2023/05/21 09:21:25;;;;;;;8.48;7.18;;;;;;;40.48;25.47;95872.72;5041477;28;20737;-62
2023/05/21 09:23:58;;;;;;;10.80;8.48;;;;;;;37.51;27.93;95884.53;5043287;28;20763;-61
2023/05/21 09:26:27;;;;;;;10.25;7.30;;;;;;;36.09;26.78;95875.28;5045431;28;20076;-63
2023/05/21 09:28:57;;;;;;;9.95;7.20;;;;;;;36.37;26.50;95872.19;5040416;28;20091;-62
2023/05/21 09:31:26;;;;;;;9.23;7.00;;;;;;;36.09;27.66;95869.78;5034283;28;20144;-61
2023/05/21 09:33:55;;;;;;;8.38;7.40;;;;;;;36.91;26.62;95878.09;5037882;28;20095;-61
2023/05/21 09:36:24;;;;;;;7.80;6.50;;;;;;;36.58;26.78;95875.09;5041210;28;20080;-62
2023/05/21 09:38:52;;;;;;;7.60;6.63;;;;;;;35.46;26.91;95859.34;5049659;28;20658;-59
2023/05/21 09:41:31;;;;;;;8.05;6.70;;;;;;;35.35;27.53;95884.31;5035502;28;20084;-61
2023/05/21 09:44:00;;;;;;;8.57;6.50;;;;;;;36.23;27.17;95872.38;5043715;28;20650;-61
2023/05/21 09:46:37;;;;;;;7.57;6.53;;;;;;;35.05;27.64;95871.44;5036284;28;20544;-61
2023/05/21 09:49:06;;;;;;;9.68;7.10;;;;;;;35.71;27.25;95877.00;5040325;28;20572;-61
2023/05/21 09:51:38;;;;;;;9.90;5.75;;;;;;;35.61;27.25;95867.94;5037511;28;20116;-61
2023/05/21 09:54:07;;;;;;;7.97;7.18;;;;;;;35.74;27.38;95876.38;5051174;28;20662;-61
2023/05/21 09:56:36;;;;;;;8.80;6.85;;;;;;;36.78;26.18;95868.13;5054029;28;20099;-61
2023/05/21 09:59:05;;;;;;;8.43;6.75;;;;;;;35.78;26.69;95869.91;5052236;28;20091;-61
2023/05/21 10:01:33;;;;;;;10.25;7.53;;;;;;;35.67;27.52;95869.41;5047906;28;20085;-60
2023/05/21 10:04:04;;;;;;;9.90;7.40;;;;;;;36.04;27.02;95874.66;5049416;28;20852;-60
2023/05/21 10:06:34;;;;;;;9.63;7.43;;;;;;;35.60;27.05;95863.59;5044975;28;20720;-61
2023/05/21 10:09:07;;;;;;;8.55;6.97;;;;;;;37.81;26.17;95870.78;5047536;28;20539;-61
2023/05/21 10:11:37;;;;;;;9.05;7.70;;;;;;;36.94;27.84;95876.66;5050195;28;20080;-61
2023/05/21 10:14:06;;;;;;;11.73;8.18;;;;;;;36.84;27.82;95875.88;5038869;28;20478;-61
2023/05/21 10:16:36;;;;;;;8.45;6.78;;;;;;;37.06;27.69;95866.63;5050034;28;20084;-61
2023/05/21 10:19:09;;;;;;;7.68;6.65;;;;;;;37.13;26.88;95871.59;5048715;28;20065;-60
2023/05/21 10:21:39;;;;;;;13.65;6.93;;;;;;;37.67;27.15;95865.53;5038568;28;20084;-61
2023/05/21 10:24:08;;;;;;;7.75;6.75;;;;;;;36.99;26.93;95865.50;5037595;28;20080;-61
2023/05/21 10:26:39;;;;;;;9.32;6.97;;;;;;;36.66;27.17;95879.81;5041743;28;20073;-63
2023/05/21 10:29:08;;;;;;;8.75;7.50;;;;;;;38.52;26.74;95864.41;5038058;28;20091;-60
2023/05/21 10:31:38;;;;;;;11.05;6.75;;;;;;;38.08;26.64;95866.72;5043411;28;20088;-61
2023/05/21 10:34:07;;;;;;;9.05;6.45;;;;;;;36.98;27.81;95861.13;5040183;28;20088;-60
2023/05/21 10:36:36;;;;;;;9.27;7.10;;;;;;;38.59;26.31;95864.66;5047672;28;20085;-56
2023/05/21 10:39:08;;;;;;;17.73;7.80;;;;;;;37.97;27.85;95863.56;5050172;28;20089;-57
2023/05/21 10:41:43;;;;;;;9.32;8.07;;;;;;;36.55;27.91;95859.31;5030768;28;20099;-59
2023/05/21 10:44:19;;;;;;;10.98;7.00;;;;;;;36.52;27.43;95858.00;5037974;28;20083;-59
2023/05/21 10:47:00;;;;;;;11.45;7.68;;;;;;;38.79;26.05;95855.53;5031364;28;20108;-60
2023/05/21 10:49:51;;;;;;;8.88;6.68;;;;;;;36.79;27.55;95856.81;5042442;28;20084;-61
2023/05/21 10:52:29;;;;;;;10.10;6.82;;;;;;;36.63;27.39;95849.44;5045281;28;20480;-60
2023/05/21 10:55:06;;;;;;;8.27;6.90;;;;;;;36.97;27.49;95856.78;5051353;28;20081;-59
2023/05/21 10:57:48;;;;;;;7.95;6.70;;;;;;;37.50;25.72;95847.97;5049174;28;20085;-58
2023/05/21 11:00:17;;;;;;;7.97;6.85;;;;;;;38.11;25.91;95858.59;5042205;28;20080;-59
2023/05/21 11:02:45;;;;;;;9.30;6.57;;;;;;;36.96;26.04;95846.88;5053624;28;20064;-60
2023/05/21 11:05:14;;;;;;;9.20;7.22;;;;;;;37.60;25.86;95851.47;5045654;28;20103;-59
2023/05/21 11:07:55;;;;;;;8.63;6.70;;;;;;;37.55;25.71;95844.25;5046986;28;20080;-59
2023/05/21 11:10:43;;;;;;;9.32;6.85;;;;;;;38.83;24.50;95850.97;5049407;28;20084;-57
2023/05/21 11:13:15;;;;;;;9.98;6.53;;;;;;;38.68;24.91;95848.81;5047278;28;20515;-57
2023/05/21 11:16:06;;;;;;;8.05;6.88;;;;;;;40.04;24.25;95845.78;5044812;28;20080;-60
2023/05/21 11:19:05;;;;;;;8.10;7.18;;;;;;;37.33;26.34;95853.53;5046999;28;20088;-58
2023/05/21 11:21:36;;;;;;;11.35;7.38;;;;;;;37.92;25.70;95839.81;4981591;28;20078;-61
2023/05/21 11:24:09;;;;;;;8.93;6.32;;;;;;;38.67;24.76;95850.78;5030258;28;20076;-58
2023/05/21 11:27:03;;;;;;;9.85;7.10;;;;;;;37.88;25.25;95854.53;5050194;28;20460;-58
2023/05/21 11:29:40;;;;;;;8.35;7.13;;;;;;;39.20;24.30;95847.44;5027782;28;20068;-60
2023/05/21 11:32:09;;;;;;;9.60;7.15;;;;;;;40.02;24.10;95839.81;5047269;28;20089;-59
2023/05/21 11:34:40;;;;;;;9.25;7.20;;;;;;;38.41;25.91;95845.56;5051571;28;20081;-60
2023/05/21 11:37:33;;;;;;;9.82;6.88;;;;;;;38.52;24.65;95847.88;5042506;28;20076;-60
2023/05/21 11:40:17;;;;;;;8.25;7.10;;;;;;;38.14;25.08;95841.41;5048044;28;20531;-56
2023/05/21 11:42:49;;;;;;;10.15;6.53;;;;;;;38.55;24.53;95844.44;5045497;28;20075;-58